sensor_id;sensor_type;location;lat;lon;timestamp;P1;durP1;ratioP1;P2;durP2;ratioP2
11960;SDS011;6040;49.358;11.140;2023-01-31T00:00:51;13.53;;;5.47;;
11960;SDS011;6040;49.358;11.140;2023-01-31T00:03:19;11.80;;;5.70;;
11960;SDS011;6040;49.358;11.140;2023-01-31T00:05:45;13.57;;;5.53;;
11960;SDS011;6040;49.358;11.140;2023-01-31T00:08:12;11.77;;;5.70;;
11960;SDS011;6040;49.358;11.140;2023-01-31T00:10:39;11.10;;;5.10;;
11960;SDS011;6040;49.358;11.140;2023-01-31T00:13:06;11.37;;;5.17;;
11960;SDS011;6040;49.358;11.140;2023-01-31T00:15:33;11.00;;;5.17;;
11960;SDS011;6040;49.358;11.140;2023-01-31T00:18:01;11.47;;;5.30;;
11960;SDS011;6040;49.358;11.140;2023-01-31T00:20:28;9.20;;;5.57;;
11960;SDS011;6040;49.358;11.140;2023-01-31T00:22:55;8.83;;;5.13;;
11960;SDS011;6040;49.358;11.140;2023-01-31T00:25:21;8.67;;;4.90;;
11960;SDS011;6040;49.358;11.140;2023-01-31T00:27:48;9.37;;;4.40;;
11960;SDS011;6040;49.358;11.140;2023-01-31T00:30:15;10.27;;;5.27;;
11960;SDS011;6040;49.358;11.140;2023-01-31T00:32:42;11.17;;;5.13;;
11960;SDS011;6040;49.358;11.140;2023-01-31T00:35:10;14.77;;;5.50;;
11960;SDS011;6040;49.358;11.140;2023-01-31T00:37:37;11.93;;;5.00;;
11960;SDS011;6040;49.358;11.140;2023-01-31T00:40:05;11.43;;;4.70;;
11960;SDS011;6040;49.358;11.140;2023-01-31T00:42:32;8.70;;;5.07;;
11960;SDS011;6040;49.358;11.140;2023-01-31T00:44:59;12.53;;;4.90;;
11960;SDS011;6040;49.358;11.140;2023-01-31T00:47:26;8.67;;;4.73;;
11960;SDS011;6040;49.358;11.140;2023-01-31T00:49:53;9.43;;;4.77;;
11960;SDS011;6040;49.358;11.140;2023-01-31T00:52:21;9.20;;;4.57;;
11960;SDS011;6040;49.358;11.140;2023-01-31T00:54:48;12.03;;;4.70;;
11960;SDS011;6040;49.358;11.140;2023-01-31T00:57:14;9.37;;;5.20;;
11960;SDS011;6040;49.358;11.140;2023-01-31T00:59:41;12.80;;;4.97;;
11960;SDS011;6040;49.358;11.140;2023-01-31T01:02:08;9.87;;;5.30;;
11960;SDS011;6040;49.358;11.140;2023-01-31T01:04:35;15.40;;;4.90;;
11960;SDS011;6040;49.358;11.140;2023-01-31T01:07:02;10.17;;;5.27;;
11960;SDS011;6040;49.358;11.140;2023-01-31T01:09:30;9.70;;;5.43;;
11960;SDS011;6040;49.358;11.140;2023-01-31T01:11:57;10.10;;;5.17;;
11960;SDS011;6040;49.358;11.140;2023-01-31T01:14:24;13.33;;;5.30;;
11960;SDS011;6040;49.358;11.140;2023-01-31T01:16:50;12.47;;;5.87;;
11960;SDS011;6040;49.358;11.140;2023-01-31T01:19:18;11.60;;;5.37;;
11960;SDS011;6040;49.358;11.140;2023-01-31T01:21:45;14.07;;;5.37;;
11960;SDS011;6040;49.358;11.140;2023-01-31T01:24:13;11.63;;;5.30;;
11960;SDS011;6040;49.358;11.140;2023-01-31T01:26:42;15.63;;;5.80;;
11960;SDS011;6040;49.358;11.140;2023-01-31T01:29:09;9.93;;;5.33;;
11960;SDS011;6040;49.358;11.140;2023-01-31T01:31:37;12.03;;;5.57;;
11960;SDS011;6040;49.358;11.140;2023-01-31T01:34:05;11.17;;;5.30;;
11960;SDS011;6040;49.358;11.140;2023-01-31T01:36:34;16.60;;;6.00;;
11960;SDS011;6040;49.358;11.140;2023-01-31T01:39:02;7.87;;;4.63;;
11960;SDS011;6040;49.358;11.140;2023-01-31T01:41:30;9.43;;;4.60;;
11960;SDS011;6040;49.358;11.140;2023-01-31T01:44:00;11.13;;;5.00;;
11960;SDS011;6040;49.358;11.140;2023-01-31T01:46:29;9.67;;;4.73;;
11960;SDS011;6040;49.358;11.140;2023-01-31T01:48:59;12.80;;;4.90;;
11960;SDS011;6040;49.358;11.140;2023-01-31T01:51:29;13.07;;;5.10;;
11960;SDS011;6040;49.358;11.140;2023-01-31T01:53:59;12.07;;;4.97;;
11960;SDS011;6040;49.358;11.140;2023-01-31T01:56:30;11.00;;;5.23;;
11960;SDS011;6040;49.358;11.140;2023-01-31T01:59:03;10.13;;;4.90;;
11960;SDS011;6040;49.358;11.140;2023-01-31T02:01:34;9.83;;;4.50;;
11960;SDS011;6040;49.358;11.140;2023-01-31T02:04:02;10.00;;;4.50;;
11960;SDS011;6040;49.358;11.140;2023-01-31T02:06:32;9.30;;;4.40;;
11960;SDS011;6040;49.358;11.140;2023-01-31T02:09:00;10.63;;;4.73;;
11960;SDS011;6040;49.358;11.140;2023-01-31T02:11:29;6.23;;;4.00;;
11960;SDS011;6040;49.358;11.140;2023-01-31T02:13:59;9.43;;;4.40;;
11960;SDS011;6040;49.358;11.140;2023-01-31T02:16:28;8.77;;;4.87;;
11960;SDS011;6040;49.358;11.140;2023-01-31T02:18:55;15.00;;;4.90;;
11960;SDS011;6040;49.358;11.140;2023-01-31T02:21:45;12.87;;;4.73;;
11960;SDS011;6040;49.358;11.140;2023-01-31T02:27:33;8.50;;;4.30;;
11960;SDS011;6040;49.358;11.140;2023-01-31T02:30:24;9.33;;;4.70;;
11960;SDS011;6040;49.358;11.140;2023-01-31T02:33:21;12.30;;;4.83;;
11960;SDS011;6040;49.358;11.140;2023-01-31T02:35:57;9.23;;;4.50;;
11960;SDS011;6040;49.358;11.140;2023-01-31T02:38:40;8.63;;;4.23;;
11960;SDS011;6040;49.358;11.140;2023-01-31T02:41:16;10.07;;;4.60;;
11960;SDS011;6040;49.358;11.140;2023-01-31T02:43:49;10.27;;;4.57;;
11960;SDS011;6040;49.358;11.140;2023-01-31T02:46:38;12.47;;;4.40;;
11960;SDS011;6040;49.358;11.140;2023-01-31T02:49:14;13.83;;;4.93;;
11960;SDS011;6040;49.358;11.140;2023-01-31T02:51:59;9.97;;;4.43;;
11960;SDS011;6040;49.358;11.140;2023-01-31T02:54:43;9.40;;;4.83;;
11960;SDS011;6040;49.358;11.140;2023-01-31T02:57:34;11.80;;;4.63;;
11960;SDS011;6040;49.358;11.140;2023-01-31T03:00:02;7.33;;;4.87;;
11960;SDS011;6040;49.358;11.140;2023-01-31T03:02:29;10.40;;;4.50;;
11960;SDS011;6040;49.358;11.140;2023-01-31T03:04:58;16.37;;;5.20;;
11960;SDS011;6040;49.358;11.140;2023-01-31T03:07:24;10.17;;;4.67;;
11960;SDS011;6040;49.358;11.140;2023-01-31T03:09:58;9.77;;;4.50;;
11960;SDS011;6040;49.358;11.140;2023-01-31T03:12:35;13.23;;;5.17;;
11960;SDS011;6040;49.358;11.140;2023-01-31T03:15:19;13.90;;;4.60;;
11960;SDS011;6040;49.358;11.140;2023-01-31T03:18:15;8.70;;;4.73;;
11960;SDS011;6040;49.358;11.140;2023-01-31T03:20:48;11.53;;;5.20;;
11960;SDS011;6040;49.358;11.140;2023-01-31T03:23:19;9.87;;;4.73;;
11960;SDS011;6040;49.358;11.140;2023-01-31T03:25:51;9.07;;;5.00;;
11960;SDS011;6040;49.358;11.140;2023-01-31T03:28:19;11.47;;;4.87;;
11960;SDS011;6040;49.358;11.140;2023-01-31T03:30:51;10.90;;;4.77;;
11960;SDS011;6040;49.358;11.140;2023-01-31T03:33:25;9.70;;;5.20;;
11960;SDS011;6040;49.358;11.140;2023-01-31T03:35:58;12.00;;;4.63;;
11960;SDS011;6040;49.358;11.140;2023-01-31T03:38:30;9.87;;;4.63;;
11960;SDS011;6040;49.358;11.140;2023-01-31T03:41:03;12.53;;;5.20;;
11960;SDS011;6040;49.358;11.140;2023-01-31T03:43:36;9.47;;;4.43;;
11960;SDS011;6040;49.358;11.140;2023-01-31T03:46:08;14.47;;;5.00;;
11960;SDS011;6040;49.358;11.140;2023-01-31T03:48:41;9.13;;;4.47;;
11960;SDS011;6040;49.358;11.140;2023-01-31T03:51:13;14.87;;;4.47;;
11960;SDS011;6040;49.358;11.140;2023-01-31T03:53:44;10.97;;;4.80;;
11960;SDS011;6040;49.358;11.140;2023-01-31T03:56:16;15.07;;;5.10;;
11960;SDS011;6040;49.358;11.140;2023-01-31T03:58:46;8.40;;;4.47;;
11960;SDS011;6040;49.358;11.140;2023-01-31T04:01:17;11.13;;;4.70;;
11960;SDS011;6040;49.358;11.140;2023-01-31T04:03:49;13.37;;;4.97;;
11960;SDS011;6040;49.358;11.140;2023-01-31T04:06:19;13.70;;;5.83;;
11960;SDS011;6040;49.358;11.140;2023-01-31T04:08:47;13.53;;;4.80;;
11960;SDS011;6040;49.358;11.140;2023-01-31T04:11:13;7.47;;;4.63;;
11960;SDS011;6040;49.358;11.140;2023-01-31T04:13:44;10.87;;;5.23;;
11960;SDS011;6040;49.358;11.140;2023-01-31T04:16:11;10.33;;;5.47;;
11960;SDS011;6040;49.358;11.140;2023-01-31T04:18:38;11.23;;;5.60;;
11960;SDS011;6040;49.358;11.140;2023-01-31T04:21:04;10.20;;;4.90;;
11960;SDS011;6040;49.358;11.140;2023-01-31T04:23:33;10.53;;;5.03;;
11960;SDS011;6040;49.358;11.140;2023-01-31T04:25:59;11.77;;;5.20;;
11960;SDS011;6040;49.358;11.140;2023-01-31T04:28:27;12.43;;;5.17;;
11960;SDS011;6040;49.358;11.140;2023-01-31T04:30:54;8.90;;;4.77;;
11960;SDS011;6040;49.358;11.140;2023-01-31T04:33:22;10.70;;;4.93;;
11960;SDS011;6040;49.358;11.140;2023-01-31T04:35:49;9.97;;;4.53;;
11960;SDS011;6040;49.358;11.140;2023-01-31T04:38:16;8.83;;;4.97;;
11960;SDS011;6040;49.358;11.140;2023-01-31T04:40:44;10.57;;;5.33;;
11960;SDS011;6040;49.358;11.140;2023-01-31T04:43:11;8.80;;;4.83;;
11960;SDS011;6040;49.358;11.140;2023-01-31T04:45:38;15.17;;;5.67;;
11960;SDS011;6040;49.358;11.140;2023-01-31T04:48:05;10.20;;;4.80;;
11960;SDS011;6040;49.358;11.140;2023-01-31T04:50:32;11.10;;;4.67;;
11960;SDS011;6040;49.358;11.140;2023-01-31T04:52:59;9.77;;;5.63;;
11960;SDS011;6040;49.358;11.140;2023-01-31T04:55:26;12.50;;;5.00;;
11960;SDS011;6040;49.358;11.140;2023-01-31T04:57:54;7.40;;;4.70;;
11960;SDS011;6040;49.358;11.140;2023-01-31T05:00:21;11.50;;;5.27;;
11960;SDS011;6040;49.358;11.140;2023-01-31T05:02:48;10.00;;;4.83;;
11960;SDS011;6040;49.358;11.140;2023-01-31T05:05:15;9.10;;;5.20;;
11960;SDS011;6040;49.358;11.140;2023-01-31T05:07:42;11.53;;;4.90;;
11960;SDS011;6040;49.358;11.140;2023-01-31T05:10:10;15.17;;;5.50;;
11960;SDS011;6040;49.358;11.140;2023-01-31T05:12:37;18.20;;;4.80;;
11960;SDS011;6040;49.358;11.140;2023-01-31T05:15:05;12.30;;;5.03;;
11960;SDS011;6040;49.358;11.140;2023-01-31T05:17:33;13.80;;;5.10;;
11960;SDS011;6040;49.358;11.140;2023-01-31T05:20:00;10.73;;;5.13;;
11960;SDS011;6040;49.358;11.140;2023-01-31T05:22:28;10.20;;;5.13;;
11960;SDS011;6040;49.358;11.140;2023-01-31T05:24:54;10.67;;;4.73;;
11960;SDS011;6040;49.358;11.140;2023-01-31T05:27:21;11.57;;;5.07;;
11960;SDS011;6040;49.358;11.140;2023-01-31T05:29:48;10.27;;;4.97;;
11960;SDS011;6040;49.358;11.140;2023-01-31T05:32:16;12.53;;;4.97;;
11960;SDS011;6040;49.358;11.140;2023-01-31T05:34:43;12.13;;;5.50;;
11960;SDS011;6040;49.358;11.140;2023-01-31T05:37:10;15.43;;;4.83;;
11960;SDS011;6040;49.358;11.140;2023-01-31T05:39:37;11.60;;;4.60;;
11960;SDS011;6040;49.358;11.140;2023-01-31T05:42:04;12.30;;;4.83;;
11960;SDS011;6040;49.358;11.140;2023-01-31T05:44:31;12.20;;;4.70;;
11960;SDS011;6040;49.358;11.140;2023-01-31T05:46:57;11.63;;;5.10;;
11960;SDS011;6040;49.358;11.140;2023-01-31T05:49:26;17.37;;;5.33;;
11960;SDS011;6040;49.358;11.140;2023-01-31T05:51:57;9.63;;;4.43;;
11960;SDS011;6040;49.358;11.140;2023-01-31T05:54:24;10.27;;;4.33;;
11960;SDS011;6040;49.358;11.140;2023-01-31T05:56:51;12.30;;;4.30;;
11960;SDS011;6040;49.358;11.140;2023-01-31T05:59:17;13.17;;;4.60;;
11960;SDS011;6040;49.358;11.140;2023-01-31T06:01:44;8.87;;;4.40;;
11960;SDS011;6040;49.358;11.140;2023-01-31T06:04:11;10.97;;;4.57;;
11960;SDS011;6040;49.358;11.140;2023-01-31T06:06:39;9.43;;;4.40;;
11960;SDS011;6040;49.358;11.140;2023-01-31T06:09:06;12.33;;;4.10;;
11960;SDS011;6040;49.358;11.140;2023-01-31T06:11:33;8.03;;;4.33;;
11960;SDS011;6040;49.358;11.140;2023-01-31T06:14:00;11.27;;;4.47;;
11960;SDS011;6040;49.358;11.140;2023-01-31T06:16:27;7.87;;;4.60;;
11960;SDS011;6040;49.358;11.140;2023-01-31T06:18:54;10.93;;;5.10;;
11960;SDS011;6040;49.358;11.140;2023-01-31T06:21:21;10.20;;;4.80;;
11960;SDS011;6040;49.358;11.140;2023-01-31T06:23:49;8.67;;;4.40;;
11960;SDS011;6040;49.358;11.140;2023-01-31T06:26:16;11.20;;;4.77;;
11960;SDS011;6040;49.358;11.140;2023-01-31T06:28:43;15.07;;;4.87;;
11960;SDS011;6040;49.358;11.140;2023-01-31T06:31:10;12.80;;;4.87;;
11960;SDS011;6040;49.358;11.140;2023-01-31T06:33:38;10.93;;;4.80;;
11960;SDS011;6040;49.358;11.140;2023-01-31T06:36:06;14.63;;;4.97;;
11960;SDS011;6040;49.358;11.140;2023-01-31T06:38:33;8.07;;;4.73;;
11960;SDS011;6040;49.358;11.140;2023-01-31T06:41:01;19.70;;;5.20;;
11960;SDS011;6040;49.358;11.140;2023-01-31T06:43:28;10.60;;;5.13;;
11960;SDS011;6040;49.358;11.140;2023-01-31T06:45:55;15.50;;;5.23;;
11960;SDS011;6040;49.358;11.140;2023-01-31T06:48:22;11.93;;;5.57;;
11960;SDS011;6040;49.358;11.140;2023-01-31T06:50:48;13.43;;;4.97;;
11960;SDS011;6040;49.358;11.140;2023-01-31T06:53:15;13.93;;;5.53;;
11960;SDS011;6040;49.358;11.140;2023-01-31T06:55:42;10.67;;;5.27;;
11960;SDS011;6040;49.358;11.140;2023-01-31T06:58:10;15.97;;;5.37;;
11960;SDS011;6040;49.358;11.140;2023-01-31T07:00:37;11.63;;;5.50;;
11960;SDS011;6040;49.358;11.140;2023-01-31T07:03:04;13.27;;;5.70;;
11960;SDS011;6040;49.358;11.140;2023-01-31T07:05:31;17.03;;;5.83;;
11960;SDS011;6040;49.358;11.140;2023-01-31T07:07:57;14.17;;;5.27;;
11960;SDS011;6040;49.358;11.140;2023-01-31T07:10:24;14.17;;;5.67;;
11960;SDS011;6040;49.358;11.140;2023-01-31T07:12:51;12.17;;;5.93;;
11960;SDS011;6040;49.358;11.140;2023-01-31T07:15:19;16.47;;;5.77;;
11960;SDS011;6040;49.358;11.140;2023-01-31T07:17:46;14.27;;;5.10;;
11960;SDS011;6040;49.358;11.140;2023-01-31T07:20:13;11.80;;;5.13;;
11960;SDS011;6040;49.358;11.140;2023-01-31T07:22:40;14.43;;;5.97;;
11960;SDS011;6040;49.358;11.140;2023-01-31T07:25:07;12.03;;;5.70;;
11960;SDS011;6040;49.358;11.140;2023-01-31T07:27:34;10.93;;;5.07;;
11960;SDS011;6040;49.358;11.140;2023-01-31T07:30:01;22.20;;;6.20;;
11960;SDS011;6040;49.358;11.140;2023-01-31T07:32:30;13.40;;;5.57;;
11960;SDS011;6040;49.358;11.140;2023-01-31T07:34:56;14.60;;;5.60;;
11960;SDS011;6040;49.358;11.140;2023-01-31T07:37:23;10.33;;;6.00;;
11960;SDS011;6040;49.358;11.140;2023-01-31T07:39:50;10.63;;;5.40;;
11960;SDS011;6040;49.358;11.140;2023-01-31T07:42:17;17.13;;;6.10;;
11960;SDS011;6040;49.358;11.140;2023-01-31T07:44:44;14.60;;;6.07;;
11960;SDS011;6040;49.358;11.140;2023-01-31T07:47:10;15.83;;;5.87;;
11960;SDS011;6040;49.358;11.140;2023-01-31T07:49:39;11.90;;;5.97;;
11960;SDS011;6040;49.358;11.140;2023-01-31T07:52:05;13.23;;;5.80;;
11960;SDS011;6040;49.358;11.140;2023-01-31T07:54:32;12.93;;;5.57;;
11960;SDS011;6040;49.358;11.140;2023-01-31T07:56:59;16.53;;;5.73;;
11960;SDS011;6040;49.358;11.140;2023-01-31T07:59:26;10.00;;;5.27;;
11960;SDS011;6040;49.358;11.140;2023-01-31T08:01:53;12.67;;;6.27;;
11960;SDS011;6040;49.358;11.140;2023-01-31T08:04:38;13.73;;;5.57;;
11960;SDS011;6040;49.358;11.140;2023-01-31T08:07:05;10.10;;;5.10;;
11960;SDS011;6040;49.358;11.140;2023-01-31T08:09:34;11.30;;;5.60;;
11960;SDS011;6040;49.358;11.140;2023-01-31T08:12:03;12.53;;;6.10;;
11960;SDS011;6040;49.358;11.140;2023-01-31T08:14:30;10.57;;;5.43;;
11960;SDS011;6040;49.358;11.140;2023-01-31T08:16:57;10.53;;;5.30;;
11960;SDS011;6040;49.358;11.140;2023-01-31T08:19:24;12.70;;;5.30;;
11960;SDS011;6040;49.358;11.140;2023-01-31T08:21:52;12.23;;;5.53;;
11960;SDS011;6040;49.358;11.140;2023-01-31T08:24:19;10.47;;;5.27;;
11960;SDS011;6040;49.358;11.140;2023-01-31T08:26:45;14.03;;;5.97;;
11960;SDS011;6040;49.358;11.140;2023-01-31T08:29:12;9.23;;;5.60;;
11960;SDS011;6040;49.358;11.140;2023-01-31T08:31:39;17.27;;;6.20;;
11960;SDS011;6040;49.358;11.140;2023-01-31T08:34:06;10.53;;;5.43;;
11960;SDS011;6040;49.358;11.140;2023-01-31T08:36:33;14.87;;;5.60;;
11960;SDS011;6040;49.358;11.140;2023-01-31T08:39:02;13.70;;;6.33;;
11960;SDS011;6040;49.358;11.140;2023-01-31T08:41:29;9.93;;;5.70;;
11960;SDS011;6040;49.358;11.140;2023-01-31T08:43:58;11.43;;;5.67;;
11960;SDS011;6040;49.358;11.140;2023-01-31T08:46:25;17.77;;;6.07;;
11960;SDS011;6040;49.358;11.140;2023-01-31T08:48:55;10.90;;;5.77;;
11960;SDS011;6040;49.358;11.140;2023-01-31T08:51:21;14.23;;;6.17;;
11960;SDS011;6040;49.358;11.140;2023-01-31T08:53:49;13.63;;;5.90;;
11960;SDS011;6040;49.358;11.140;2023-01-31T08:56:17;8.30;;;4.53;;
11960;SDS011;6040;49.358;11.140;2023-01-31T08:58:45;15.27;;;6.50;;
11960;SDS011;6040;49.358;11.140;2023-01-31T09:01:13;9.37;;;5.17;;
11960;SDS011;6040;49.358;11.140;2023-01-31T09:03:42;11.87;;;5.90;;
11960;SDS011;6040;49.358;11.140;2023-01-31T09:06:10;14.07;;;5.77;;
11960;SDS011;6040;49.358;11.140;2023-01-31T09:08:39;10.90;;;5.90;;
11960;SDS011;6040;49.358;11.140;2023-01-31T09:11:06;10.83;;;5.23;;
11960;SDS011;6040;49.358;11.140;2023-01-31T09:13:34;16.73;;;6.10;;
11960;SDS011;6040;49.358;11.140;2023-01-31T09:16:02;8.37;;;4.87;;
11960;SDS011;6040;49.358;11.140;2023-01-31T09:18:31;8.13;;;4.70;;
11960;SDS011;6040;49.358;11.140;2023-01-31T09:21:02;9.43;;;5.13;;
11960;SDS011;6040;49.358;11.140;2023-01-31T09:23:30;11.33;;;4.97;;
11960;SDS011;6040;49.358;11.140;2023-01-31T09:25:56;9.90;;;5.10;;
11960;SDS011;6040;49.358;11.140;2023-01-31T09:28:23;9.83;;;4.77;;
11960;SDS011;6040;49.358;11.140;2023-01-31T09:30:52;6.40;;;4.10;;
11960;SDS011;6040;49.358;11.140;2023-01-31T09:33:19;9.90;;;4.50;;
11960;SDS011;6040;49.358;11.140;2023-01-31T09:35:54;14.47;;;4.27;;
11960;SDS011;6040;49.358;11.140;2023-01-31T09:38:21;11.20;;;4.90;;
11960;SDS011;6040;49.358;11.140;2023-01-31T09:40:48;12.67;;;4.97;;
11960;SDS011;6040;49.358;11.140;2023-01-31T09:43:17;13.07;;;5.00;;
11960;SDS011;6040;49.358;11.140;2023-01-31T09:45:47;14.17;;;4.97;;
11960;SDS011;6040;49.358;11.140;2023-01-31T09:48:17;8.57;;;4.63;;
11960;SDS011;6040;49.358;11.140;2023-01-31T09:50:49;9.87;;;4.00;;
11960;SDS011;6040;49.358;11.140;2023-01-31T09:53:20;10.50;;;4.97;;
11960;SDS011;6040;49.358;11.140;2023-01-31T09:55:54;11.87;;;4.70;;
11960;SDS011;6040;49.358;11.140;2023-01-31T09:58:30;12.57;;;4.77;;
11960;SDS011;6040;49.358;11.140;2023-01-31T10:01:02;9.93;;;4.50;;
11960;SDS011;6040;49.358;11.140;2023-01-31T10:03:50;13.77;;;5.10;;
11960;SDS011;6040;49.358;11.140;2023-01-31T10:06:27;10.10;;;4.70;;
11960;SDS011;6040;49.358;11.140;2023-01-31T10:09:00;11.53;;;4.37;;
11960;SDS011;6040;49.358;11.140;2023-01-31T10:11:32;10.90;;;4.63;;
11960;SDS011;6040;49.358;11.140;2023-01-31T10:14:03;14.30;;;4.60;;
11960;SDS011;6040;49.358;11.140;2023-01-31T10:16:44;11.77;;;4.33;;
11960;SDS011;6040;49.358;11.140;2023-01-31T10:19:21;11.43;;;4.53;;
11960;SDS011;6040;49.358;11.140;2023-01-31T10:21:52;8.63;;;3.80;;
11960;SDS011;6040;49.358;11.140;2023-01-31T10:24:23;8.67;;;4.00;;
11960;SDS011;6040;49.358;11.140;2023-01-31T10:26:53;9.90;;;3.90;;
11960;SDS011;6040;49.358;11.140;2023-01-31T10:29:25;13.70;;;4.63;;
11960;SDS011;6040;49.358;11.140;2023-01-31T10:31:59;10.40;;;4.47;;
11960;SDS011;6040;49.358;11.140;2023-01-31T10:34:31;8.63;;;3.87;;
11960;SDS011;6040;49.358;11.140;2023-01-31T10:37:04;7.60;;;3.93;;
11960;SDS011;6040;49.358;11.140;2023-01-31T10:39:36;9.73;;;4.53;;
11960;SDS011;6040;49.358;11.140;2023-01-31T10:42:11;8.70;;;4.13;;
11960;SDS011;6040;49.358;11.140;2023-01-31T10:44:46;11.37;;;4.27;;
11960;SDS011;6040;49.358;11.140;2023-01-31T10:47:18;12.17;;;4.10;;
11960;SDS011;6040;49.358;11.140;2023-01-31T10:49:49;8.20;;;4.30;;
11960;SDS011;6040;49.358;11.140;2023-01-31T10:52:20;8.90;;;4.20;;
11960;SDS011;6040;49.358;11.140;2023-01-31T10:55:01;11.50;;;4.43;;
11960;SDS011;6040;49.358;11.140;2023-01-31T10:57:35;11.63;;;4.97;;
11960;SDS011;6040;49.358;11.140;2023-01-31T11:00:02;11.70;;;3.80;;
11960;SDS011;6040;49.358;11.140;2023-01-31T11:02:30;10.47;;;4.30;;
11960;SDS011;6040;49.358;11.140;2023-01-31T11:04:59;10.83;;;4.77;;
11960;SDS011;6040;49.358;11.140;2023-01-31T11:07:27;9.67;;;4.80;;
11960;SDS011;6040;49.358;11.140;2023-01-31T11:09:55;10.53;;;4.07;;
11960;SDS011;6040;49.358;11.140;2023-01-31T11:12:38;8.93;;;4.73;;
11960;SDS011;6040;49.358;11.140;2023-01-31T11:15:13;12.53;;;4.87;;
11960;SDS011;6040;49.358;11.140;2023-01-31T11:17:41;10.10;;;4.60;;
11960;SDS011;6040;49.358;11.140;2023-01-31T11:20:19;10.53;;;4.50;;
11960;SDS011;6040;49.358;11.140;2023-01-31T11:22:49;7.87;;;4.17;;
11960;SDS011;6040;49.358;11.140;2023-01-31T11:25:17;15.90;;;5.33;;
11960;SDS011;6040;49.358;11.140;2023-01-31T11:27:46;11.10;;;4.40;;
11960;SDS011;6040;49.358;11.140;2023-01-31T11:30:26;8.33;;;4.13;;
11960;SDS011;6040;49.358;11.140;2023-01-31T11:32:54;9.53;;;4.90;;
11960;SDS011;6040;49.358;11.140;2023-01-31T11:35:24;7.50;;;3.90;;
11960;SDS011;6040;49.358;11.140;2023-01-31T11:37:54;10.30;;;4.50;;
11960;SDS011;6040;49.358;11.140;2023-01-31T11:40:29;10.80;;;4.50;;
11960;SDS011;6040;49.358;11.140;2023-01-31T11:42:57;12.77;;;4.73;;
11960;SDS011;6040;49.358;11.140;2023-01-31T11:45:26;8.40;;;3.70;;
11960;SDS011;6040;49.358;11.140;2023-01-31T11:47:55;11.97;;;4.00;;
11960;SDS011;6040;49.358;11.140;2023-01-31T11:50:25;7.93;;;3.73;;
11960;SDS011;6040;49.358;11.140;2023-01-31T11:52:58;8.23;;;4.43;;
11960;SDS011;6040;49.358;11.140;2023-01-31T11:55:33;10.13;;;4.40;;
11960;SDS011;6040;49.358;11.140;2023-01-31T11:58:03;8.27;;;3.87;;
11960;SDS011;6040;49.358;11.140;2023-01-31T12:00:43;8.20;;;;;
11960;SDS011;6040;49.358;11.140;2023-01-31T12:03:20;9.17;;;3.90;;
11960;SDS011;6040;49.358;11.140;2023-01-31T12:06:00;10.53;;;4.10;;
11960;SDS011;6040;49.358;11.140;2023-01-31T12:08:28;7.50;;;4.33;;
11960;SDS011;6040;49.358;11.140;2023-01-31T12:10:56;12.57;;;4.20;;
11960;SDS011;6040;49.358;11.140;2023-01-31T12:13:24;7.53;;;4.03;;
11960;SDS011;6040;49.358;11.140;2023-01-31T12:15:54;10.77;;;3.93;;
11960;SDS011;6040;49.358;11.140;2023-01-31T12:18:27;10.97;;;4.43;;
11960;SDS011;6040;49.358;11.140;2023-01-31T12:21:06;16.07;;;4.37;;
11960;SDS011;6040;49.358;11.140;2023-01-31T12:23:39;12.73;;;3.63;;
11960;SDS011;6040;49.358;11.140;2023-01-31T12:26:16;6.30;;;3.50;;
11960;SDS011;6040;49.358;11.140;2023-01-31T12:28:53;7.57;;;3.33;;
11960;SDS011;6040;49.358;11.140;2023-01-31T12:31:43;10.63;;;3.67;;
11960;SDS011;6040;49.358;11.140;2023-01-31T12:34:24;9.43;;;3.50;;
11960;SDS011;6040;49.358;11.140;2023-01-31T12:37:12;7.73;;;3.60;;
11960;SDS011;6040;49.358;11.140;2023-01-31T12:39:53;10.40;;;3.27;;
11960;SDS011;6040;49.358;11.140;2023-01-31T12:42:37;10.40;;;3.37;;
11960;SDS011;6040;49.358;11.140;2023-01-31T12:45:19;7.17;;;3.37;;
11960;SDS011;6040;49.358;11.140;2023-01-31T12:50:54;7.17;;;3.20;;
11960;SDS011;6040;49.358;11.140;2023-01-31T12:53:35;10.80;;;3.30;;
11960;SDS011;6040;49.358;11.140;2023-01-31T12:59:23;9.03;;;3.47;;
11960;SDS011;6040;49.358;11.140;2023-01-31T13:02:01;8.13;;;3.50;;
11960;SDS011;6040;49.358;11.140;2023-01-31T13:04:44;8.67;;;3.13;;
11960;SDS011;6040;49.358;11.140;2023-01-31T13:07:18;9.93;;;3.93;;
11960;SDS011;6040;49.358;11.140;2023-01-31T13:09:53;8.73;;;3.47;;
11960;SDS011;6040;49.358;11.140;2023-01-31T13:12:24;7.87;;;3.30;;
11960;SDS011;6040;49.358;11.140;2023-01-31T13:14:55;8.17;;;3.43;;
11960;SDS011;6040;49.358;11.140;2023-01-31T13:17:28;10.60;;;3.50;;
11960;SDS011;6040;49.358;11.140;2023-01-31T13:19:57;7.37;;;3.63;;
11960;SDS011;6040;49.358;11.140;2023-01-31T13:22:28;8.27;;;3.90;;
11960;SDS011;6040;49.358;11.140;2023-01-31T13:25:03;8.57;;;3.70;;
11960;SDS011;6040;49.358;11.140;2023-01-31T13:27:41;13.67;;;4.13;;
11960;SDS011;6040;49.358;11.140;2023-01-31T13:30:26;8.30;;;3.73;;
11960;SDS011;6040;49.358;11.140;2023-01-31T13:32:58;10.20;;;4.57;;
11960;SDS011;6040;49.358;11.140;2023-01-31T13:35:29;9.33;;;3.77;;
11960;SDS011;6040;49.358;11.140;2023-01-31T13:38:01;7.77;;;3.20;;
11960;SDS011;6040;49.358;11.140;2023-01-31T13:40:35;10.80;;;4.03;;
11960;SDS011;6040;49.358;11.140;2023-01-31T13:43:10;7.60;;;3.63;;
11960;SDS011;6040;49.358;11.140;2023-01-31T13:45:40;9.87;;;3.77;;
11960;SDS011;6040;49.358;11.140;2023-01-31T13:48:15;8.03;;;4.17;;
11960;SDS011;6040;49.358;11.140;2023-01-31T13:50:51;11.00;;;3.90;;
11960;SDS011;6040;49.358;11.140;2023-01-31T13:53:22;8.77;;;4.10;;
11960;SDS011;6040;49.358;11.140;2023-01-31T13:55:54;9.73;;;3.80;;
11960;SDS011;6040;49.358;11.140;2023-01-31T13:58:23;4.97;;;3.60;;
11960;SDS011;6040;49.358;11.140;2023-01-31T14:00:55;8.33;;;3.90;;
11960;SDS011;6040;49.358;11.140;2023-01-31T14:03:24;9.70;;;4.30;;
11960;SDS011;6040;49.358;11.140;2023-01-31T14:05:53;6.23;;;3.63;;
11960;SDS011;6040;49.358;11.140;2023-01-31T14:08:28;9.60;;;3.87;;
11960;SDS011;6040;49.358;11.140;2023-01-31T14:14:19;10.83;;;4.00;;
11960;SDS011;6040;49.358;11.140;2023-01-31T14:17:03;7.83;;;4.10;;
11960;SDS011;6040;49.358;11.140;2023-01-31T14:22:33;7.87;;;3.80;;
11960;SDS011;6040;49.358;11.140;2023-01-31T14:25:02;8.83;;;3.93;;
11960;SDS011;6040;49.358;11.140;2023-01-31T14:27:42;11.43;;;4.00;;
11960;SDS011;6040;49.358;11.140;2023-01-31T14:30:21;5.80;;;3.70;;
11960;SDS011;6040;49.358;11.140;2023-01-31T14:33:07;9.17;;;4.03;;
11960;SDS011;6040;49.358;11.140;2023-01-31T14:35:48;12.13;;;4.40;;
11960;SDS011;6040;49.358;11.140;2023-01-31T14:38:48;6.57;;;3.63;;
11960;SDS011;6040;49.358;11.140;2023-01-31T14:41:33;12.20;;;4.23;;
11960;SDS011;6040;49.358;11.140;2023-01-31T14:44:12;8.60;;;3.43;;
11960;SDS011;6040;49.358;11.140;2023-01-31T14:52:44;9.50;;;3.97;;
11960;SDS011;6040;49.358;11.140;2023-01-31T14:55:33;6.37;;;3.23;;
11960;SDS011;6040;49.358;11.140;2023-01-31T14:58:20;6.97;;;3.60;;
11960;SDS011;6040;49.358;11.140;2023-01-31T15:00:52;7.10;;;3.60;;
11960;SDS011;6040;49.358;11.140;2023-01-31T15:03:21;10.67;;;3.67;;
11960;SDS011;6040;49.358;11.140;2023-01-31T15:05:50;7.80;;;3.63;;
11960;SDS011;6040;49.358;11.140;2023-01-31T15:08:32;7.33;;;3.40;;
11960;SDS011;6040;49.358;11.140;2023-01-31T15:11:13;6.67;;;3.53;;
11960;SDS011;6040;49.358;11.140;2023-01-31T15:14:16;8.50;;;3.47;;
11960;SDS011;6040;49.358;11.140;2023-01-31T15:16:53;7.13;;;3.60;;
11960;SDS011;6040;49.358;11.140;2023-01-31T15:19:24;7.20;;;3.20;;
11960;SDS011;6040;49.358;11.140;2023-01-31T15:21:54;6.20;;;3.13;;
11960;SDS011;6040;49.358;11.140;2023-01-31T15:24:24;8.73;;;3.13;;